Time;durP1;ratioP1;P1;durP2;ratioP2;P2;SDS_P1;SDS_P2;PMS_P1;PMS_P2;Temp;Humidity;BMP_temperature;BMP_pressure;BME280_temperature;BME280_humidity;BME280_pressure;Samples;Min_cycle;Max_cycle;Signal;HPM_P1;HPM_P2
2023/02/25 01:00:48;;;;;;;21.02;11.43;;;;;;;7.82;70.36;98662.38;4988237;28;20046;-95
2023/02/25 01:03:25;;;;;;;19.60;12.13;;;;;;;7.56;70.71;98640.13;4947602;28;20022;-96
2023/02/25 01:06:01;;;;;;;23.35;12.13;;;;;;;7.71;70.60;98659.97;4934798;29;20099;-95
2023/02/25 01:08:35;;;;;;;24.92;11.77;;;;;;;7.74;70.38;98654.88;4933865;29;20063;-96
2023/02/25 01:11:53;;;;;;;18.35;10.52;;;;;;;7.73;70.46;98655.16;4919196;29;20043;-95
2023/02/25 01:14:34;;;;;;;22.33;11.20;;;;;;;7.51;70.98;98633.94;4919701;29;20530;-95
2023/02/25 01:17:08;;;;;;;20.13;10.43;;;;;;;7.58;71.05;98637.97;4904615;29;20103;-96
2023/02/25 01:19:39;;;;;;;16.98;8.98;;;;;;;7.49;70.97;98612.78;4919531;29;20287;-96
2023/02/25 01:22:08;;;;;;;17.20;10.43;;;;;;;7.48;70.91;98620.03;4920125;29;20040;-96
2023/02/25 01:24:36;;;;;;;19.05;11.48;;;;;;;7.67;70.93;98644.41;4888197;29;20111;-96
2023/02/25 01:27:07;;;;;;;20.85;10.52;;;;;;;7.58;70.22;98613.88;4919207;29;20056;-96
2023/02/25 01:29:37;;;;;;;18.00;9.88;;;;;;;7.64;70.52;98617.38;4903964;29;20055;-95
2023/02/25 01:32:13;;;;;;;14.07;7.60;;;;;;;7.74;70.46;98633.44;4889532;29;20055;-96
2023/02/25 01:34:49;;;;;;;15.85;8.40;;;;;;;7.63;70.16;98605.03;4919779;29;20046;-95
2023/02/25 01:37:35;;;;;;;17.27;8.65;;;;;;;7.74;70.30;98614.69;4924821;29;20040;-96
2023/02/25 01:40:07;;;;;;;16.92;8.38;;;;;;;7.64;70.14;98596.72;4922176;29;20107;-95
2023/02/25 01:42:43;;;;;;;15.05;7.65;;;;;;;7.67;69.71;98596.19;4953766;29;20039;-96
2023/02/25 01:45:18;;;;;;;14.63;6.88;;;;;;;7.87;69.52;98626.75;4937693;29;20046;-96
2023/02/25 01:47:52;;;;;;;16.73;8.45;;;;;;;7.74;68.89;98593.25;4953922;29;20039;-95
2023/02/25 01:50:25;;;;;;;18.48;7.90;;;;;;;7.83;69.03;98594.31;4921824;29;20054;-96
2023/02/25 01:53:03;;;;;;;18.17;7.82;;;;;;;7.86;68.82;98601.81;4921100;29;20553;-96
2023/02/25 01:55:32;;;;;;;12.20;7.28;;;;;;;7.96;68.67;98609.03;4920010;29;20091;-94
2023/02/25 01:57:58;;;;;;;12.90;7.30;;;;;;;8.06;68.46;98621.63;4953086;29;20098;-95
2023/02/25 02:00:54;;;;;;;17.95;9.75;;;;;;;8.09;68.09;98608.50;4825345;29;2827199;-94
2023/02/25 02:03:45;;;;;;;17.92;8.65;;;;;;;8.03;67.99;98600.69;4926802;29;20592;-96
2023/02/25 02:06:37;;;;;;;16.65;10.48;;;;;;;8.07;68.33;98615.16;4916339;29;20037;-96
2023/02/25 02:09:06;;;;;;;20.52;11.40;;;;;;;8.02;68.15;98616.00;4905934;29;20039;-96
2023/02/25 02:11:58;;;;;;;15.73;9.95;;;;;;;7.92;69.02;98604.47;4903982;29;20071;-96
2023/02/25 02:14:46;;;;;;;16.92;7.78;;;;;;;7.77;68.83;98587.34;4916937;29;20104;-96
2023/02/25 02:17:28;;;;;;;11.48;7.15;;;;;;;7.92;68.65;98616.00;4917102;29;20057;-96
2023/02/25 02:20:36;;;;;;;19.63;8.65;;;;;;;7.74;68.91;98571.00;4916542;29;20037;-96
2023/02/25 02:23:30;;;;;;;16.00;8.30;;;;;;;7.90;68.69;98602.84;4908662;29;20082;-95
2023/02/25 02:26:24;;;;;;;16.15;9.23;;;;;;;7.84;68.86;98598.59;4916524;29;20095;-96
2023/02/25 02:29:42;;;;;;;14.88;7.40;;;;;;;7.73;68.38;98585.47;4915395;29;20032;-96
2023/02/25 02:32:25;;;;;;;14.30;7.05;;;;;;;7.76;68.89;98601.00;4897794;29;20044;-96
2023/02/25 02:35:17;;;;;;;16.40;9.43;;;;;;;7.73;68.98;98594.31;4914728;29;20031;-96
2023/02/25 02:38:30;;;;;;;18.88;10.00;;;;;;;7.57;69.33;98593.50;4937594;29;20091;-95
2023/02/25 02:41:17;;;;;;;14.10;8.30;;;;;;;7.66;69.16;98613.34;4929362;29;20016;-96
2023/02/25 02:44:06;;;;;;;11.93;7.35;;;;;;;7.68;69.10;98603.16;4954588;29;20008;-96
2023/02/25 02:46:59;;;;;;;16.05;7.07;;;;;;;7.71;68.68;98599.13;4953547;29;20036;-95
2023/02/25 02:49:37;;;;;;;;;;;;;;;7.74;68.56;98592.44;4923966;29;20055;-95
2023/02/25 02:52:20;;;;;;;13.80;8.07;;;;;;;7.64;68.59;98577.97;4952513;29;19942;-96
2023/02/25 02:55:30;;;;;;;13.73;7.60;;;;;;;7.74;68.79;98597.78;4937839;29;20039;-96
2023/02/25 02:58:12;;;;;;;18.42;8.52;;;;;;;7.65;69.16;98590.28;4921685;29;20036;-96
2023/02/25 03:00:54;;;;;;;14.15;8.65;;;;;;;7.49;69.07;98570.75;4903829;29;20072;-96
2023/02/25 03:03:35;;;;;;;17.77;6.55;;;;;;;7.55;69.14;98587.59;4927524;29;20050;-95
2023/02/25 03:06:13;;;;;;;12.98;6.68;;;;;;;7.49;69.22;98569.91;4943279;29;20031;-96
2023/02/25 03:08:59;;;;;;;10.48;5.93;;;;;;;7.53;68.77;98562.16;4930269;29;20066;-96
2023/02/25 03:11:39;;;;;;;14.50;8.30;;;;;;;7.65;68.50;98592.16;4931568;29;20063;-95
2023/02/25 03:14:09;;;;;;;11.55;6.57;;;;;;;7.71;68.59;98583.06;4960795;28;20460;-96
2023/02/25 03:16:46;;;;;;;11.35;6.53;;;;;;;7.67;68.46;98566.72;4945718;29;20094;-96
2023/02/25 03:19:44;;;;;;;14.10;6.68;;;;;;;7.81;67.93;98580.38;4976302;29;20132;-96
2023/02/25 03:22:16;;;;;;;13.95;7.00;;;;;;;7.72;67.77;98555.19;4941974;29;20047;-96
2023/02/25 03:24:44;;;;;;;;;;;;;;;7.96;67.33;98582.22;4946275;29;20026;-96
2023/02/25 03:27:33;;;;;;;15.48;8.93;;;;;;;7.88;67.56;98580.88;4960593;29;19911;-96
2023/02/25 03:30:49;;;;;;;15.90;8.82;;;;;;;7.70;67.67;98565.38;4950944;28;20039;-95
2023/02/25 03:34:04;;;;;;;;;;;;;;;;;;;;;
2023/02/25 03:36:35;;;;;;;;;;;;;;;7.87;67.39;98578.50;4982669;28;20038;-96
2023/02/25 03:39:16;;;;;;;9.93;6.38;;;;;;;7.80;66.97;98551.97;4980088;28;19910;-96
2023/02/25 03:41:43;;;;;;;11.45;6.78;;;;;;;7.67;67.34;98547.94;4965161;28;20087;-96
2023/02/25 03:44:43;;;;;;;13.43;6.90;;;;;;;7.74;67.57;98547.69;4948504;28;20046;-95
2023/02/25 03:47:23;;;;;;;13.23;7.28;;;;;;;7.75;67.19;98543.13;4963660;29;20054;-96
2023/02/25 03:50:16;;;;;;;14.65;6.50;;;;;;;7.88;67.29;98570.16;4959806;29;20027;-96
2023/02/25 03:52:48;;;;;;;11.65;6.30;;;;;;;7.94;67.03;98565.59;4960203;29;20118;-96
2023/02/25 03:55:37;;;;;;;11.85;6.78;;;;;;;7.78;67.08;98540.72;4943763;29;20197;-96
2023/02/25 03:58:08;;;;;;;12.40;6.15;;;;;;;7.87;66.67;98554.38;4962098;29;20050;-95
2023/02/25 04:00:36;;;;;;;11.07;6.68;;;;;;;7.96;66.59;98554.63;4944674;29;20051;-96
2023/02/25 04:03:14;;;;;;;12.45;7.60;;;;;;;7.98;66.46;98549.78;4945249;29;20039;-96
2023/02/25 04:05:43;;;;;;;12.73;8.38;;;;;;;7.82;66.97;98540.97;4929947;29;20039;-95
2023/02/25 04:08:14;;;;;;;17.63;7.88;;;;;;;7.81;66.79;98548.22;4908719;29;20073;-94
2023/02/25 04:10:43;;;;;;;11.40;7.22;;;;;;;7.66;67.19;98522.25;4909768;29;20035;-94
2023/02/25 04:13:09;;;;;;;15.40;6.95;;;;;;;7.74;67.33;98544.19;4908990;29;20035;-93
2023/02/25 04:15:35;;;;;;;13.13;7.70;;;;;;;7.59;67.26;98537.78;4909263;29;20061;-94
2023/02/25 04:18:02;;;;;;;13.38;8.43;;;;;;;7.29;67.74;98509.94;4918126;28;20043;-93
2023/02/25 04:20:28;;;;;;;21.00;9.35;;;;;;;7.34;67.61;98514.50;4928314;28;20026;-93
2023/02/25 04:22:54;;;;;;;13.50;9.00;;;;;;;7.23;68.35;98508.34;4928956;28;20041;-94
2023/02/25 04:25:20;;;;;;;15.85;8.50;;;;;;;7.35;68.56;98529.50;4928281;28;20114;-94
2023/02/25 04:27:45;;;;;;;12.73;7.53;;;;;;;7.11;68.66;98502.44;4928690;28;20030;-94
2023/02/25 04:30:11;;;;;;;14.30;7.80;;;;;;;7.12;69.10;98501.38;4927862;28;20504;-94
2023/02/25 04:32:37;;;;;;;14.07;7.28;;;;;;;7.26;68.70;98523.06;4928420;28;20038;-94
2023/02/25 04:35:03;;;;;;;12.90;6.90;;;;;;;7.15;68.39;98500.84;4928106;28;20026;-94
2023/02/25 04:37:29;;;;;;;12.70;6.43;;;;;;;7.20;68.60;98500.84;4944537;28;20030;-93
2023/02/25 04:39:54;;;;;;;14.02;6.30;;;;;;;7.25;68.22;98500.03;4928022;28;20033;-93
2023/02/25 04:42:20;;;;;;;13.73;7.13;;;;;;;7.53;67.80;98530.81;4928224;28;20026;-93
2023/02/25 04:44:45;;;;;;;12.07;6.10;;;;;;;7.48;67.16;98504.84;4927802;28;20125;-93
2023/02/25 04:47:11;;;;;;;12.23;7.32;;;;;;;7.47;67.15;98503.25;4927884;28;20105;-94
2023/02/25 04:49:43;;;;;;;15.15;8.57;;;;;;;7.40;67.34;98518.78;4927395;28;20023;-94
2023/02/25 04:52:09;;;;;;;;;;;;;;;7.33;67.86;98512.91;4929578;28;20019;-94
2023/02/25 04:54:35;;;;;;;13.75;8.30;;;;;;;7.14;68.21;98509.97;4959259;28;19953;-94
2023/02/25 04:57:00;;;;;;;17.27;8.18;;;;;;;7.11;68.50;98505.13;4927835;28;20027;-93
2023/02/25 04:59:26;;;;;;;15.70;8.73;;;;;;;6.85;68.30;98497.06;4927548;28;20445;-94
2023/02/25 05:01:51;;;;;;;15.63;9.05;;;;;;;6.70;69.40;98502.38;4927440;28;20026;-94
2023/02/25 05:04:17;;;;;;;14.57;8.55;;;;;;;6.54;69.60;98488.19;4927386;28;20023;-93
2023/02/25 05:06:43;;;;;;;15.63;8.63;;;;;;;6.46;70.22;98484.16;4928695;28;20027;-94
2023/02/25 05:09:08;;;;;;;16.27;8.40;;;;;;;6.53;70.22;98496.47;4927718;28;20038;-92
2023/02/25 05:11:33;;;;;;;21.77;8.93;;;;;;;6.64;70.29;98506.94;4926900;28;20081;-93
2023/02/25 05:13:59;;;;;;;15.35;8.75;;;;;;;6.68;69.87;98505.34;4927762;28;20045;-94
2023/02/25 05:16:25;;;;;;;19.13;9.63;;;;;;;6.63;70.25;98483.91;4927555;28;20026;-93
2023/02/25 05:18:50;;;;;;;18.33;9.35;;;;;;;6.65;69.76;98479.09;4942722;28;20058;-93
2023/02/25 05:21:18;;;;;;;18.65;8.15;;;;;;;6.75;69.97;98491.72;4927364;28;20027;-93
2023/02/25 05:23:44;;;;;;;14.05;8.70;;;;;;;6.81;70.10;98498.69;4943278;28;20131;-94
2023/02/25 05:26:10;;;;;;;17.35;8.43;;;;;;;6.74;70.44;98490.09;4942867;28;20023;-93
2023/02/25 05:28:36;;;;;;;16.80;8.85;;;;;;;6.86;69.72;98498.66;4926942;28;20053;-94
2023/02/25 05:31:08;;;;;;;14.15;8.90;;;;;;;6.92;69.85;98512.88;4926882;28;20027;-92
2023/02/25 05:33:37;;;;;;;18.08;9.43;;;;;;;6.86;69.91;98503.22;4927121;28;20499;-94
2023/02/25 05:36:07;;;;;;;15.65;9.18;;;;;;;6.74;69.98;98484.72;4926866;28;20015;-93
2023/02/25 05:38:33;;;;;;;14.75;8.88;;;;;;;6.81;69.68;98496.00;4927322;28;20023;-94
2023/02/25 05:40:59;;;;;;;16.27;8.90;;;;;;;6.85;70.17;98502.44;4942534;28;20031;-93
2023/02/25 05:43:25;;;;;;;15.32;8.93;;;;;;;6.79;69.54;98486.63;4927763;28;20481;-94
2023/02/25 05:45:54;;;;;;;17.27;9.82;;;;;;;6.88;70.05;98499.22;4943354;28;20029;-94
2023/02/25 05:48:20;;;;;;;16.25;9.43;;;;;;;6.69;70.20;98495.44;4927717;28;20035;-93
2023/02/25 05:50:49;;;;;;;14.27;10.10;;;;;;;6.79;70.16;98511.50;4942648;28;20524;-93
2023/02/25 05:53:17;;;;;;;12.73;9.00;;;;;;;6.75;70.45;98513.09;4927957;28;20026;-93
2023/02/25 05:55:43;;;;;;;13.85;8.98;;;;;;;6.87;70.03;98507.53;4942714;28;20428;-93
2023/02/25 05:58:08;;;;;;;19.40;10.10;;;;;;;6.88;70.55;98499.22;4927283;28;20123;-93
2023/02/25 06:00:35;;;;;;;17.50;10.10;;;;;;;6.97;70.02;98510.22;4958500;28;20133;-93
2023/02/25 06:03:00;;;;;;;19.08;10.73;;;;;;;6.88;70.11;98498.41;4942183;28;20077;-94
2023/02/25 06:05:29;;;;;;;20.33;12.38;;;;;;;6.86;70.11;98496.00;4943009;28;20477;-94
2023/02/25 06:07:56;;;;;;;21.50;12.13;;;;;;;7.01;69.75;98500.56;4929219;28;20027;-95
2023/02/25 06:10:22;;;;;;;18.33;11.05;;;;;;;7.13;69.40;98496.81;4927997;28;20029;-93
2023/02/25 06:12:47;;;;;;;21.65;11.13;;;;;;;7.25;68.85;98494.69;4942372;28;20027;-94
2023/02/25 06:15:13;;;;;;;20.27;9.98;;;;;;;7.44;68.87;98506.44;4942712;28;20027;-94
2023/02/25 06:17:39;;;;;;;22.05;10.27;;;;;;;7.51;69.09;98500.03;4928354;28;20117;-94
2023/02/25 06:20:05;;;;;;;19.35;10.73;;;;;;;7.62;68.50;98498.94;4927451;28;20185;-93
2023/02/25 06:22:31;;;;;;;22.10;11.10;;;;;;;7.86;68.48;98520.59;4942334;28;20046;-93
2023/02/25 06:24:57;;;;;;;21.75;11.70;;;;;;;7.82;68.12;98495.41;4942944;28;20511;-94
2023/02/25 06:27:22;;;;;;;22.35;11.77;;;;;;;7.92;67.75;98487.34;4927955;28;20035;-94
2023/02/25 06:29:48;;;;;;;16.60;10.27;;;;;;;7.98;67.95;98488.13;4927178;28;20026;-93
2023/02/25 06:32:14;;;;;;;18.10;10.40;;;;;;;8.14;68.57;98496.94;4927471;28;20113;-93
2023/02/25 06:34:39;;;;;;;18.75;11.82;;;;;;;8.15;68.02;98475.19;4927295;28;20066;-96
2023/02/25 06:37:05;;;;;;;18.33;11.30;;;;;;;8.38;67.91;98508.63;4926832;28;20033;-94
2023/02/25 06:39:31;;;;;;;19.73;11.10;;;;;;;8.52;66.75;98510.75;4927289;28;20113;-93
2023/02/25 06:41:56;;;;;;;21.10;11.38;;;;;;;8.52;65.92;98490.06;4928323;28;20041;-94
2023/02/25 06:44:22;;;;;;;19.00;10.60;;;;;;;8.66;65.13;98493.75;4945950;28;20031;-93
2023/02/25 06:46:51;;;;;;;26.50;11.13;;;;;;;8.70;65.53;98476.03;4947107;28;20602;-94
2023/02/25 06:49:20;;;;;;;20.90;10.23;;;;;;;8.93;64.99;98489.03;4946086;28;20485;-93
2023/02/25 06:51:48;;;;;;;17.95;10.60;;;;;;;9.14;65.36;98492.38;4946747;28;20046;-93
2023/02/25 06:54:14;;;;;;;19.35;10.45;;;;;;;9.25;64.96;98483.13;4946933;28;20509;-94
2023/02/25 06:56:40;;;;;;;18.75;9.15;;;;;;;9.40;64.51;98482.19;4947056;28;20496;-93
2023/02/25 06:59:06;;;;;;;18.88;10.27;;;;;;;9.43;63.50;98460.16;4930497;28;20031;-93
2023/02/25 07:01:31;;;;;;;17.17;10.25;;;;;;;9.78;62.30;98488.56;4930459;28;20031;-93
2023/02/25 07:03:57;;;;;;;19.23;9.60;;;;;;;9.78;62.43;98459.00;4931627;28;20468;-94
2023/02/25 07:06:22;;;;;;;18.15;10.07;;;;;;;10.03;63.18;98457.09;4931009;28;20082;-94
2023/02/25 07:08:48;;;;;;;25.20;12.38;;;;;;;10.18;61.89;98464.19;4930178;28;20066;-94
2023/02/25 07:11:16;;;;;;;20.35;9.32;;;;;;;10.44;60.14;98480.84;4946146;28;20035;-94
2023/02/25 07:13:42;;;;;;;19.25;8.80;;;;;;;10.43;59.33;98446.94;4961565;28;20481;-93
2023/02/25 07:16:09;;;;;;;16.63;8.63;;;;;;;10.65;58.55;98454.44;4930346;28;20089;-94
2023/02/25 07:18:35;;;;;;;14.25;7.97;;;;;;;10.84;57.93;98457.13;4929947;28;20428;-94
2023/02/25 07:21:00;;;;;;;21.38;9.18;;;;;;;10.87;57.98;98443.06;4945841;28;20066;-93
2023/02/25 07:23:26;;;;;;;13.40;8.45;;;;;;;11.08;57.59;98438.13;4945465;28;20031;-94
2023/02/25 07:25:51;;;;;;;17.95;7.93;;;;;;;11.17;57.14;98424.81;4929710;28;20026;-94
2023/02/25 07:28:17;;;;;;;17.85;7.60;;;;;;;11.29;56.39;98422.47;4946086;28;20038;-94
2023/02/25 07:30:42;;;;;;;15.95;7.85;;;;;;;11.55;55.88;98427.38;4930465;28;20035;-93
2023/02/25 07:33:08;;;;;;;11.30;6.38;;;;;;;11.79;54.23;98427.19;4929789;28;20062;-95
2023/02/25 07:35:33;;;;;;;14.02;6.78;;;;;;;11.96;53.99;98435.50;4945484;28;20548;-93
2023/02/25 07:37:59;;;;;;;15.50;5.97;;;;;;;12.06;52.84;98419.13;4929930;28;20041;-94
2023/02/25 07:40:24;;;;;;;11.23;5.63;;;;;;;12.36;51.72;98433.06;4929579;28;20034;-94
2023/02/25 07:42:50;;;;;;;12.75;6.07;;;;;;;12.47;51.07;98406.63;4930173;28;20038;-94
2023/02/25 07:45:15;;;;;;;14.95;5.70;;;;;;;12.74;49.90;98414.66;4929140;28;20031;-94
2023/02/25 07:47:41;;;;;;;13.27;5.43;;;;;;;12.81;49.22;98405.31;4929823;28;20034;-94
2023/02/25 07:50:09;;;;;;;16.67;6.65;;;;;;;12.92;48.79;98390.47;4948710;28;20504;-96
2023/02/25 07:52:39;;;;;;;17.85;5.25;;;;;;;13.06;47.68;98388.47;5020115;23;20111;-96
2023/02/25 07:55:06;;;;;;;11.13;5.45;;;;;;;13.26;47.28;98389.06;4953372;29;20042;-96
2023/02/25 07:57:38;;;;;;;12.93;5.60;;;;;;;13.42;47.44;98394.91;4940358;29;20028;-95
2023/02/25 08:06:21;;;;;;;14.50;6.03;;;;;;;13.54;47.37;98395.91;4972620;29;20092;-93
2023/02/25 08:15:46;;;;;;;13.35;5.50;;;;;;;13.82;47.38;98393.00;4957283;29;20043;-96
2023/02/25 08:18:12;;;;;;;15.63;6.60;;;;;;;13.82;47.04;98365.13;4925108;29;20032;-94
2023/02/25 08:20:37;;;;;;;14.50;6.00;;;;;;;13.92;46.97;98365.66;4905772;29;20428;-93
2023/02/25 08:23:03;;;;;;;13.85;5.63;;;;;;;14.06;46.08;98370.13;4922582;29;20035;-94
2023/02/25 08:25:28;;;;;;;15.13;5.05;;;;;;;14.04;45.82;98347.97;4890478;29;20608;-95
2023/02/25 08:27:54;;;;;;;11.48;5.30;;;;;;;14.18;46.10;98364.88;4906475;29;20058;-94
2023/02/25 08:30:20;;;;;;;13.93;5.55;;;;;;;14.18;45.62;98355.97;4890339;29;20040;-94
2023/02/25 08:32:46;;;;;;;14.85;5.43;;;;;;;14.21;45.38;98339.06;4890824;29;20038;-95
2023/02/25 08:35:12;;;;;;;18.02;5.53;;;;;;;14.30;45.66;98334.47;4891025;29;20035;-94
2023/02/25 08:37:37;;;;;;;12.65;5.72;;;;;;;14.42;45.38;98344.66;4906442;29;20035;-94
2023/02/25 08:40:09;;;;;;;14.63;5.78;;;;;;;14.52;45.19;98338.91;4889991;29;20122;-93
2023/02/25 08:42:35;;;;;;;24.13;5.88;;;;;;;14.65;45.15;98340.72;4891572;29;20510;-94
2023/02/25 08:45:02;;;;;;;15.35;6.05;;;;;;;14.88;44.65;98346.72;4890227;29;20039;-93
2023/02/25 08:47:27;;;;;;;27.63;6.22;;;;;;;14.91;43.99;98326.31;4905803;29;20027;-93
2023/02/25 08:52:59;;;;;;;16.77;5.80;;;;;;;15.20;43.47;98339.13;4942788;29;20079;-94
2023/02/25 08:55:24;;;;;;;14.82;5.30;;;;;;;15.53;43.35;98352.88;4917154;29;20023;-93
2023/02/25 08:57:51;;;;;;;28.67;6.20;;;;;;;15.62;43.40;98335.75;4925550;29;20030;-94
2023/02/25 09:00:17;;;;;;;16.27;5.63;;;;;;;15.80;42.20;98326.44;4909615;29;20401;-94
2023/02/25 09:02:43;;;;;;;14.43;5.07;;;;;;;16.08;41.89;98339.50;4925424;29;20022;-95
2023/02/25 09:05:09;;;;;;;21.30;5.32;;;;;;;16.16;41.34;98325.06;4924634;29;20031;-94
2023/02/25 09:07:35;;;;;;;16.88;5.97;;;;;;;16.32;40.30;98311.69;4924884;29;20046;-94
2023/02/25 09:10:00;;;;;;;20.10;5.35;;;;;;;16.46;38.48;98303.28;4908897;29;20544;-95
2023/02/25 09:12:26;;;;;;;17.70;4.70;;;;;;;16.75;38.64;98318.66;4910116;29;20397;-94
2023/02/25 09:14:51;;;;;;;17.65;5.70;;;;;;;16.84;38.83;98308.50;4924930;29;20035;-94
2023/02/25 09:17:17;;;;;;;13.63;4.68;;;;;;;17.00;38.06;98305.16;4924040;29;20085;-94
2023/02/25 09:19:43;;;;;;;17.90;5.32;;;;;;;17.03;37.91;98293.59;4925528;29;20031;-94
2023/02/25 09:22:08;;;;;;;19.27;5.78;;;;;;;17.14;37.51;98292.81;4924663;29;20086;-94
2023/02/25 09:24:34;;;;;;;17.85;6.07;;;;;;;17.20;36.12;98282.50;4924704;29;20054;-93
2023/02/25 09:27:06;;;;;;;18.98;4.88;;;;;;;17.41;36.27;98303.38;4908583;29;20023;-94
2023/02/25 09:29:38;;;;;;;24.35;6.75;;;;;;;17.52;36.13;98293.63;4910062;29;20058;-95
2023/02/25 09:32:05;;;;;;;27.73;7.85;;;;;;;17.61;35.34;98288.06;4924294;29;20515;-94
2023/02/25 09:34:55;;;;;;;17.52;5.32;;;;;;;17.71;35.09;98284.88;4941830;29;20038;-96
2023/02/25 09:37:34;;;;;;;18.25;4.72;;;;;;;17.69;35.09;98266.16;4948473;29;20035;-96
2023/02/25 09:40:18;;;;;;;24.95;5.38;;;;;;;17.51;34.39;98249.28;4960540;29;20031;-96
2023/02/25 09:43:59;;;;;;;12.45;3.95;;;;;;;17.19;32.55;98252.94;4961357;28;20095;-95
2023/02/25 09:49:08;;;;;;;16.55;5.32;;;;;;;17.37;33.33;98251.56;4983700;23;20449;-94
2023/02/25 09:51:41;;;;;;;25.83;5.22;;;;;;;17.35;34.77;98253.84;4909540;29;20042;-94
2023/02/25 09:54:29;;;;;;;31.90;5.03;;;;;;;17.34;33.76;98254.97;4909904;29;20027;-93
2023/02/25 09:56:54;;;;;;;20.85;4.80;;;;;;;17.26;32.79;98218.56;4910064;29;20465;-94
2023/02/25 09:59:23;;;;;;;27.15;5.40;;;;;;;17.40;31.32;98225.59;4909153;29;20110;-94
2023/02/25 10:01:56;;;;;;;23.50;5.00;;;;;;;17.57;30.25;98217.97;4908411;29;20118;-94
2023/02/25 10:04:42;;;;;;;21.20;4.10;;;;;;;18.00;29.89;98236.75;4909721;29;20038;-93
2023/02/25 10:07:21;;;;;;;20.80;5.85;;;;;;;18.26;28.83;98225.38;4909206;29;20026;-94
2023/02/25 10:09:54;;;;;;;23.70;5.53;;;;;;;18.54;28.89;98217.19;4908671;29;20036;-95
2023/02/25 10:12:46;;;;;;;23.05;3.88;;;;;;;18.86;28.61;98220.75;4924446;29;20054;-95
2023/02/25 10:15:30;;;;;;;;;;;;;;;19.12;28.19;98217.50;4933592;28;20035;-94
2023/02/25 10:18:20;;;;;;;14.63;3.17;;;;;;;19.15;27.25;98216.81;4928224;29;19932;-94
2023/02/25 10:20:58;;;;;;;21.13;4.40;;;;;;;19.27;27.36;98198.72;4944147;29;20035;-93
2023/02/25 10:23:36;;;;;;;26.00;5.72;;;;;;;19.41;27.21;98195.53;4942943;29;20433;-94
2023/02/25 10:26:13;;;;;;;14.98;4.03;;;;;;;19.54;26.83;98178.66;4928315;29;20123;-95
2023/02/25 10:28:39;;;;;;;22.98;3.78;;;;;;;19.65;26.99;98165.25;4912604;29;20413;-94
2023/02/25 10:31:06;;;;;;;27.08;6.00;;;;;;;19.88;27.48;98179.03;4927529;29;20023;-94
2023/02/25 10:33:39;;;;;;;12.55;3.28;;;;;;;20.00;25.63;98178.06;4912109;29;20402;-93
2023/02/25 10:36:18;;;;;;;17.58;4.07;;;;;;;20.02;25.57;98164.81;4912517;29;20406;-95
2023/02/25 10:38:50;;;;;;;14.27;3.13;;;;;;;19.99;25.62;98151.91;4912283;29;20562;-94
2023/02/25 10:41:16;;;;;;;14.77;3.25;;;;;;;19.95;26.18;98145.56;4928167;29;20019;-94
2023/02/25 10:43:42;;;;;;;19.63;4.35;;;;;;;20.06;26.44;98151.25;4912575;29;20034;-93
2023/02/25 10:46:17;;;;;;;18.42;3.70;;;;;;;20.10;26.40;98150.16;4913825;29;20031;-94
2023/02/25 10:49:13;;;;;;;13.93;3.13;;;;;;;20.11;25.65;98151.75;4927750;29;20050;-94
2023/02/25 10:51:57;;;;;;;15.07;3.50;;;;;;;19.98;25.39;98123.78;4927771;29;20031;-94
2023/02/25 10:54:23;;;;;;;17.17;3.55;;;;;;;20.06;25.41;98129.38;4913120;29;20027;-94
2023/02/25 10:56:49;;;;;;;15.43;3.25;;;;;;;20.07;25.47;98129.03;4911910;29;20027;-94
2023/02/25 10:59:32;;;;;;;17.38;3.22;;;;;;;20.19;25.62;98130.78;4911825;29;20023;-94
2023/02/25 11:01:58;;;;;;;19.20;3.25;;;;;;;20.27;25.46;98137.19;4927397;29;20029;-94
2023/02/25 11:04:29;;;;;;;21.13;4.72;;;;;;;20.25;26.32;98120.34;4911588;29;20023;-95
2023/02/25 11:06:55;;;;;;;18.65;3.60;;;;;;;20.28;25.33;98128.63;4912357;29;20126;-95
2023/02/25 11:09:21;;;;;;;18.40;3.15;;;;;;;20.42;25.50;98146.41;4912321;29;20066;-93
2023/02/25 11:12:09;;;;;;;17.00;3.80;;;;;;;20.47;25.70;98141.44;4943250;29;20039;-95
2023/02/25 11:14:38;;;;;;;14.43;3.08;;;;;;;20.46;24.82;98133.59;4928953;29;20039;-94
2023/02/25 11:17:20;;;;;;;20.30;3.13;;;;;;;20.53;25.52;98141.94;4911622;29;20031;-94
2023/02/25 11:19:47;;;;;;;13.15;3.50;;;;;;;20.50;25.54;98128.97;4911932;29;20031;-93
2023/02/25 11:22:18;;;;;;;12.65;3.13;;;;;;;20.32;25.73;98112.28;4926889;29;20031;-95
2023/02/25 11:24:45;;;;;;;17.83;3.63;;;;;;;20.18;24.98;98088.22;4927065;29;20031;-94
2023/02/25 11:27:25;;;;;;;13.80;3.78;;;;;;;20.37;25.62;98107.28;4911059;29;20031;-95
2023/02/25 11:29:50;;;;;;;14.65;3.30;;;;;;;20.34;26.41;98093.56;4911151;29;20034;-94
2023/02/25 11:32:17;;;;;;;10.65;3.50;;;;;;;20.37;25.39;98088.16;4912485;29;20482;-95
2023/02/25 11:34:47;;;;;;;20.05;4.10;;;;;;;20.34;25.79;98105.28;4911723;29;20190;-94
2023/02/25 11:37:48;;;;;;;19.70;4.88;;;;;;;20.59;25.65;98116.69;4927736;29;20031;-95
2023/02/25 11:40:31;;;;;;;14.47;3.73;;;;;;;20.47;24.66;98102.38;4887205;29;20473;-94
2023/02/25 11:43:17;;;;;;;22.35;4.35;;;;;;;20.32;24.97;98069.34;4911518;29;20275;-94
2023/02/25 11:45:52;;;;;;;24.00;5.78;;;;;;;20.48;24.56;98087.53;4928417;29;20035;-94
2023/02/25 11:48:44;;;;;;;19.48;4.22;;;;;;;20.34;24.76;98055.31;4926649;29;20055;-94
2023/02/25 11:51:37;;;;;;;18.47;3.60;;;;;;;20.40;24.64;98056.56;4913384;29;20071;-93
2023/02/25 11:54:40;;;;;;;23.13;4.20;;;;;;;20.32;24.93;98044.72;4926933;29;20131;-94
2023/02/25 11:57:13;;;;;;;19.83;3.67;;;;;;;20.26;24.68;98057.13;4941616;29;20034;-95
2023/02/25 12:00:04;;;;;;;30.13;5.00;;;;;;;20.09;25.63;98043.97;4941938;29;20031;-93
2023/02/25 12:02:37;;;;;;;27.85;4.70;;;;;;;20.05;25.50;98052.09;4921930;29;20047;-95
2023/02/25 12:05:42;;;;;;;20.17;4.22;;;;;;;20.03;25.55;98051.66;4911511;29;20042;-93
2023/02/25 12:08:31;;;;;;;14.45;3.53;;;;;;;20.08;25.68;98065.00;4941142;29;20030;-94
2023/02/25 12:11:16;;;;;;;18.67;4.20;;;;;;;20.03;25.87;98067.28;4941431;29;20023;-94
2023/02/25 12:14:23;;;;;;;12.82;3.78;;;;;;;19.87;26.29;98062.69;4941793;29;20026;-94
2023/02/25 12:17:22;;;;;;;20.83;4.00;;;;;;;19.87;26.17;98083.75;4941936;29;20035;-92
2023/02/25 12:20:25;;;;;;;17.33;3.83;;;;;;;19.77;26.06;98082.41;4951809;29;20031;-95
2023/02/25 12:23:37;;;;;;;17.30;3.72;;;;;;;19.62;26.30;98097.69;4960769;29;20023;-95
2023/02/25 12:30:05;;;;;;;11.43;3.53;;;;;;;19.29;26.88;98107.16;4911459;29;20041;-95
2023/02/25 12:33:32;;;;;;;17.92;4.18;;;;;;;19.23;26.86;98115.97;4954269;29;20083;-94
2023/02/25 12:40:05;;;;;;;21.98;5.82;;;;;;;18.72;28.42;98128.47;4919053;29;20053;-95
2023/02/25 12:54:11;;;;;;;15.90;5.05;;;;;;;18.74;30.47;98126.16;4841421;29;20052;-95
2023/02/25 13:18:49;;;;;;;18.17;4.70;;;;;;;18.61;30.13;98063.91;5388547;23;20051;-96
2023/02/25 13:22:36;;;;;;;16.08;4.75;;;;;;;18.50;30.46;98058.19;4958475;29;20046;-95
2023/02/25 13:29:17;;;;;;;17.73;4.60;;;;;;;18.49;30.02;98068.31;4881778;29;20048;-95
2023/02/25 13:32:23;;;;;;;18.50;4.53;;;;;;;18.47;29.89;98059.72;4882930;29;20048;-95
2023/02/25 13:35:56;;;;;;;20.98;6.18;;;;;;;18.18;30.20;98039.16;4882840;29;20041;-96
2023/02/25 13:39:00;;;;;;;14.30;4.22;;;;;;;18.36;30.37;98058.66;4851100;29;20022;-94
2023/02/25 13:55:39;;;;;;;15.27;4.45;;;;;;;18.26;30.89;98078.25;4905574;29;20079;-94
2023/02/25 13:59:10;;;;;;;16.15;3.67;;;;;;;18.25;31.12;98063.84;4959164;29;20063;-96
2023/02/25 14:05:40;;;;;;;15.55;3.72;;;;;;;18.14;31.06;98066.28;4959605;29;20039;-96
2023/02/25 14:08:47;;;;;;;15.75;4.03;;;;;;;18.07;30.90;98060.66;4937818;29;20024;-96
2023/02/25 14:12:12;;;;;;;12.73;3.63;;;;;;;18.09;31.22;98066.53;4957580;29;20044;-95
2023/02/25 14:15:38;;;;;;;11.05;4.20;;;;;;;18.00;31.63;98054.25;4941520;29;20036;-95
2023/02/25 14:18:43;;;;;;;16.05;4.43;;;;;;;17.91;31.76;98036.16;4862109;29;20053;-95
2023/02/25 14:22:27;;;;;;;16.48;4.00;;;;;;;17.97;31.61;98056.53;4861697;29;20050;-95
2023/02/25 14:25:51;;;;;;;12.07;3.83;;;;;;;17.97;31.72;98063.88;4832757;29;20035;-95
2023/02/25 14:28:39;;;;;;;11.60;4.30;;;;;;;17.94;31.80;98051.00;4864092;29;20042;-96
2023/02/25 14:31:26;;;;;;;18.48;4.50;;;;;;;17.87;31.62;98037.97;4812186;29;20034;-95
2023/02/25 14:34:14;;;;;;;17.58;5.15;;;;;;;17.92;32.35;98047.81;4904567;29;20027;-94
2023/02/25 14:37:21;;;;;;;17.10;5.90;;;;;;;17.86;32.06;98052.72;4913041;29;20039;-94